Time;durP1;ratioP1;P1;durP2;ratioP2;P2;SDS_P1;SDS_P2;PMS_P1;PMS_P2;Temp;Humidity;BMP_temperature;BMP_pressure;BME280_temperature;BME280_humidity;BME280_pressure;Samples;Min_cycle;Max_cycle;Signal;HPM_P1;HPM_P2
2023/08/04 00:00:47;;;;;;;17.08;12.75;;;;;;;-143.21;58.87;70565.44;5122654;27;20304;-79
2023/08/04 00:03:15;;;;;;;18.73;12.55;;;;;;;-143.21;59.85;70579.31;5112743;27;20658;-80
2023/08/04 00:05:42;;;;;;;20.80;13.60;;;;;;;-143.21;60.46;70583.25;5119996;27;20199;-79
2023/08/04 00:08:09;;;;;;;16.15;14.18;;;;;;;-143.21;60.86;70587.22;5111850;27;20200;-79
2023/08/04 00:10:35;;;;;;;23.75;14.80;;;;;;;-143.21;60.92;70583.25;5111697;27;20207;-81
2023/08/04 00:13:02;;;;;;;18.50;14.63;;;;;;;-143.21;61.28;70581.28;5120406;27;20195;-79
2023/08/04 00:15:29;;;;;;;18.17;13.65;;;;;;;-143.21;60.88;70591.19;5111676;27;20203;-80
2023/08/04 00:17:56;;;;;;;16.92;14.27;;;;;;;-143.21;61.38;70595.16;5111037;27;20203;-79
2023/08/04 00:20:25;;;;;;;22.20;14.20;;;;;;;-143.21;61.36;70593.19;5111382;27;20286;-79
2023/08/04 00:22:51;;;;;;;20.70;14.45;;;;;;;-143.21;61.28;70601.09;5111012;27;20207;-80
2023/08/04 00:25:18;;;;;;;22.42;14.43;;;;;;;-143.21;61.33;70601.09;5117703;27;20226;-80
2023/08/04 00:27:45;;;;;;;16.15;13.38;;;;;;;-143.21;61.09;70609.03;5127380;27;20199;-79
2023/08/04 00:30:12;;;;;;;18.70;12.95;;;;;;;-143.21;60.55;70599.13;5121393;27;20678;-80
2023/08/04 00:32:39;;;;;;;17.45;13.75;;;;;;;-143.21;61.01;70595.16;5118309;27;20214;-80
2023/08/04 00:35:06;;;;;;;16.90;13.68;;;;;;;-143.21;61.35;70593.19;5110723;27;20192;-79
2023/08/04 00:37:35;;;;;;;22.45;14.88;;;;;;;-143.21;61.22;70605.06;5111403;27;20196;-79
2023/08/04 00:40:02;;;;;;;20.02;14.68;;;;;;;-143.21;61.91;70613.00;5111008;27;20678;-79
2023/08/04 00:42:29;;;;;;;21.38;15.70;;;;;;;-143.21;62.26;70624.88;5111278;27;20199;-79
2023/08/04 00:44:55;;;;;;;22.00;17.35;;;;;;;-143.21;62.23;70632.81;5111008;27;20220;-79
2023/08/04 00:47:24;;;;;;;23.17;16.77;;;;;;;-143.21;61.96;70632.81;5110113;27;20204;-80
2023/08/04 00:49:52;;;;;;;25.85;17.75;;;;;;;-143.21;62.06;70644.72;5113927;27;20673;-79
2023/08/04 00:52:19;;;;;;;27.15;18.85;;;;;;;-143.21;62.12;70642.72;5124498;27;20740;-79
2023/08/04 00:54:48;;;;;;;27.83;17.98;;;;;;;-143.21;62.26;70650.66;5113246;27;20835;-79
2023/08/04 00:57:15;;;;;;;28.73;16.92;;;;;;;-143.21;62.91;70648.69;5117415;27;20622;-79
2023/08/04 00:59:42;;;;;;;25.95;15.88;;;;;;;-143.21;63.09;70648.69;5115190;27;20203;-79
2023/08/04 01:02:09;;;;;;;21.83;15.75;;;;;;;-143.21;63.36;70660.56;5111796;27;20211;-79
2023/08/04 01:04:36;;;;;;;24.45;16.95;;;;;;;-143.21;63.41;70658.59;5111525;27;20242;-80
2023/08/04 01:07:16;;;;;;;23.90;17.73;;;;;;;-143.21;62.73;70658.59;5116307;27;20208;-80
2023/08/04 01:09:50;;;;;;;29.70;16.17;;;;;;;-143.21;62.40;70652.66;5110379;27;20235;-80
2023/08/04 01:12:24;;;;;;;21.45;15.65;;;;;;;-143.21;62.59;70648.69;5111457;27;20212;-80
2023/08/04 01:14:53;;;;;;;23.63;15.52;;;;;;;-143.21;62.38;70656.59;5110319;27;20203;-80
2023/08/04 01:17:28;;;;;;;19.33;14.73;;;;;;;-143.21;63.07;70662.56;5113000;27;20264;-80
2023/08/04 01:19:55;;;;;;;21.23;14.73;;;;;;;-143.21;63.31;70664.53;5123362;27;20658;-80
2023/08/04 01:22:24;;;;;;;17.65;14.15;;;;;;;-143.21;62.83;70662.56;5113195;27;20199;-80
2023/08/04 01:24:52;;;;;;;19.63;15.02;;;;;;;-143.21;63.61;70678.41;5126129;27;20494;-80
2023/08/04 01:27:29;;;;;;;18.52;14.43;;;;;;;-143.21;64.11;70678.41;5115281;27;20222;-79
2023/08/04 01:29:58;;;;;;;24.42;15.55;;;;;;;-143.21;64.12;70682.38;5109952;28;20199;-78
2023/08/04 01:32:25;;;;;;;20.27;14.95;;;;;;;-143.21;63.93;70682.38;5114246;27;20286;-78
2023/08/04 01:34:52;;;;;;;27.25;15.35;;;;;;;-143.21;63.97;70686.34;5119738;27;20196;-79
2023/08/04 01:37:19;;;;;;;22.13;15.25;;;;;;;-143.21;64.26;70684.34;5109923;27;20234;-80
2023/08/04 01:39:47;;;;;;;17.88;14.10;;;;;;;-143.21;62.99;70686.34;5109745;27;20686;-80
2023/08/04 01:42:14;;;;;;;15.30;13.43;;;;;;;-143.21;63.13;70710.13;5109752;28;20214;-81
2023/08/04 01:44:40;;;;;;;21.02;13.38;;;;;;;-143.21;63.38;70714.09;5109672;28;20253;-81
2023/08/04 01:47:07;;;;;;;18.92;14.02;;;;;;;-143.21;63.57;70714.09;5110362;27;20287;-80
2023/08/04 01:49:35;;;;;;;21.83;13.63;;;;;;;-143.21;63.88;70708.16;5109007;28;20287;-80
2023/08/04 01:52:02;;;;;;;22.45;13.95;;;;;;;-143.21;63.15;70698.22;5109236;28;20627;-80
2023/08/04 01:54:29;;;;;;;21.67;14.25;;;;;;;-143.21;64.12;70710.13;5109540;28;20188;-80
2023/08/04 01:56:57;;;;;;;23.15;15.15;;;;;;;-143.21;64.09;70706.16;5099504;28;20215;-80
2023/08/04 01:59:24;;;;;;;17.65;14.55;;;;;;;-143.21;64.39;70714.09;5109301;28;20202;-80
2023/08/04 02:01:51;;;;;;;15.95;13.93;;;;;;;-143.21;64.36;70710.13;5110357;28;20216;-80
2023/08/04 02:04:17;;;;;;;15.95;13.48;;;;;;;-143.21;64.45;70720.03;5109447;27;20224;-80
2023/08/04 02:06:44;;;;;;;18.73;14.73;;;;;;;-143.21;64.40;70722.03;5109370;27;20200;-81
2023/08/04 02:09:13;;;;;;;18.60;14.32;;;;;;;-143.21;64.50;70727.97;5108872;28;20596;-82
2023/08/04 02:11:40;;;;;;;22.13;14.13;;;;;;;-143.21;65.05;70731.94;5109520;28;20235;-81
2023/08/04 02:14:08;;;;;;;21.77;14.35;;;;;;;-143.21;64.95;70733.91;5110095;28;20210;-81
2023/08/04 02:16:35;;;;;;;17.60;14.82;;;;;;;-143.21;64.75;70735.91;5109833;28;20253;-81
2023/08/04 02:19:04;;;;;;;20.00;14.82;;;;;;;-143.21;65.22;70743.81;5109829;28;20331;-81
2023/08/04 02:21:31;;;;;;;19.95;14.73;;;;;;;-143.21;64.94;70743.81;5118577;28;20218;-81
2023/08/04 02:23:58;;;;;;;22.52;14.98;;;;;;;-143.21;64.33;70733.91;5123126;28;20199;-81
2023/08/04 02:26:26;;;;;;;21.55;15.38;;;;;;;-143.21;64.54;70735.91;5109622;28;20204;-81
2023/08/04 02:28:54;;;;;;;21.70;16.23;;;;;;;-143.21;64.67;70737.88;5109137;28;20230;-81
2023/08/04 02:31:24;;;;;;;22.17;16.23;;;;;;;-143.21;64.87;70747.78;5109278;28;20693;-81
2023/08/04 02:33:51;;;;;;;17.60;14.32;;;;;;;-143.21;64.37;70753.72;5110116;28;20200;-78
2023/08/04 02:36:18;;;;;;;19.48;12.27;;;;;;;-143.21;63.15;70769.59;5108980;28;20206;-79
2023/08/04 02:38:45;;;;;;;15.10;12.63;;;;;;;-143.21;63.20;70787.44;5110225;28;20577;-82
2023/08/04 02:41:12;;;;;;;16.10;12.27;;;;;;;-143.21;63.26;70813.19;5108507;28;20243;-81
2023/08/04 02:43:39;;;;;;;16.15;12.20;;;;;;;-143.21;63.82;70821.13;5113769;27;20204;-81
2023/08/04 02:46:06;;;;;;;16.38;12.73;;;;;;;-143.21;64.18;70819.16;5109601;28;20254;-80
2023/08/04 02:48:34;;;;;;;15.73;12.95;;;;;;;-143.21;64.39;70805.28;5108950;28;20265;-80
2023/08/04 02:51:05;;;;;;;16.33;12.70;;;;;;;-143.21;64.17;70801.31;5108353;28;20200;-80
2023/08/04 02:53:33;;;;;;;15.45;12.77;;;;;;;-143.21;63.64;70793.38;5109227;28;20226;-80
2023/08/04 02:56:00;;;;;;;19.08;12.10;;;;;;;-143.21;63.01;70793.38;5121756;28;20203;-80
2023/08/04 02:58:29;;;;;;;22.55;12.00;;;;;;;-143.21;63.43;70801.31;5114057;28;20208;-80
2023/08/04 03:00:55;;;;;;;18.95;13.10;;;;;;;-143.21;63.55;70803.28;5109258;27;20603;-79
2023/08/04 03:03:22;;;;;;;19.75;12.48;;;;;;;-143.21;62.83;70801.31;5108384;28;20753;-80
2023/08/04 03:05:50;;;;;;;19.33;12.65;;;;;;;-143.21;62.80;70795.38;5108870;28;20826;-79
2023/08/04 03:08:17;;;;;;;17.17;12.00;;;;;;;-143.21;62.07;70803.28;5109072;28;20204;-80
2023/08/04 03:10:44;;;;;;;15.20;11.63;;;;;;;-143.21;62.02;70801.31;5111306;27;20203;-80
2023/08/04 03:13:10;;;;;;;21.95;14.50;;;;;;;-143.21;64.42;70807.25;5112824;27;20196;-80
2023/08/04 03:15:37;;;;;;;20.58;13.57;;;;;;;-143.21;64.85;70805.28;5111844;27;20200;-80
2023/08/04 03:18:04;;;;;;;20.05;13.55;;;;;;;-143.21;63.99;70801.31;5113134;27;20211;-80
2023/08/04 03:20:36;;;;;;;19.40;13.50;;;;;;;-143.21;64.35;70813.19;5112461;27;20192;-80
2023/08/04 03:23:05;;;;;;;18.15;14.20;;;;;;;-143.21;65.37;70813.19;5120821;27;20264;-80
2023/08/04 03:25:32;;;;;;;18.48;14.65;;;;;;;-143.21;65.14;70811.22;5117121;27;20686;-80
2023/08/04 03:27:59;;;;;;;16.08;12.98;;;;;;;-143.21;64.72;70813.19;5103170;27;20590;-79
2023/08/04 03:30:26;;;;;;;19.00;13.30;;;;;;;-143.21;63.72;70809.25;5103456;27;20204;-79
2023/08/04 03:32:53;;;;;;;19.02;14.18;;;;;;;-143.21;65.17;70813.19;5116038;27;20207;-79
2023/08/04 03:35:20;;;;;;;23.55;14.82;;;;;;;-143.21;65.61;70817.16;5112233;27;20192;-78
2023/08/04 03:37:47;;;;;;;21.65;16.17;;;;;;;-143.21;65.71;70819.16;5111369;27;20207;-79
2023/08/04 03:40:15;;;;;;;27.75;16.27;;;;;;;-143.21;65.91;70809.25;5111827;27;20204;-79
2023/08/04 03:42:43;;;;;;;24.58;16.73;;;;;;;-143.21;65.79;70807.25;5111247;27;20292;-78
2023/08/04 03:45:10;;;;;;;25.50;17.25;;;;;;;-143.21;65.12;70811.22;5111536;27;20223;-79
2023/08/04 03:47:37;;;;;;;25.00;17.63;;;;;;;-143.21;65.82;70825.09;5112206;27;20208;-79
2023/08/04 03:50:04;;;;;;;29.02;17.35;;;;;;;-143.21;66.02;70837.00;5113511;27;20682;-79
2023/08/04 03:52:31;;;;;;;26.08;17.25;;;;;;;-143.21;66.24;70835.00;5115451;27;20262;-78
2023/08/04 03:54:58;;;;;;;22.90;17.20;;;;;;;-143.21;66.48;70840.97;5128314;27;20750;-78
2023/08/04 03:57:26;;;;;;;24.08;16.30;;;;;;;-143.21;66.85;70842.94;5114682;27;20218;-78
2023/08/04 03:59:54;;;;;;;25.67;16.88;;;;;;;-143.21;66.51;70846.91;5114779;27;20199;-79
2023/08/04 04:02:21;;;;;;;25.20;16.30;;;;;;;-143.21;66.60;70846.91;5112097;27;20223;-79
2023/08/04 04:04:48;;;;;;;28.63;16.08;;;;;;;-143.21;66.58;70844.91;5111485;27;20231;-78
2023/08/04 04:07:15;;;;;;;23.45;16.20;;;;;;;-143.21;66.69;70854.84;5114570;27;20207;-79
2023/08/04 04:09:41;;;;;;;22.17;15.82;;;;;;;-143.21;66.72;70848.88;5126711;27;20214;-79
2023/08/04 04:12:09;;;;;;;23.02;16.05;;;;;;;-143.21;66.52;70840.97;5113127;27;20211;-78
2023/08/04 04:14:37;;;;;;;26.83;16.35;;;;;;;-143.21;66.35;70833.03;5111580;27;20203;-79
2023/08/04 04:17:04;;;;;;;24.48;16.33;;;;;;;-143.21;65.80;70821.13;5111168;27;20227;-79
2023/08/04 04:19:31;;;;;;;21.70;15.15;;;;;;;-143.21;65.85;70813.19;5110661;27;20208;-79
2023/08/04 04:21:58;;;;;;;33.45;16.25;;;;;;;-143.21;65.35;70797.34;5113512;27;20211;-80
2023/08/04 04:24:25;;;;;;;27.08;16.50;;;;;;;-143.21;65.46;70801.31;5128650;27;20211;-79
2023/08/04 04:26:52;;;;;;;20.58;16.23;;;;;;;-143.21;65.23;70795.38;5111328;27;20224;-79
2023/08/04 04:29:19;;;;;;;18.88;15.05;;;;;;;-143.21;64.66;70795.38;5110865;27;20675;-78
2023/08/04 04:31:47;;;;;;;18.27;16.08;;;;;;;-143.21;64.60;70783.47;5116413;27;20196;-78
2023/08/04 04:34:14;;;;;;;16.95;14.90;;;;;;;-143.21;64.83;70787.44;5110989;27;20208;-78
2023/08/04 04:36:41;;;;;;;23.40;15.93;;;;;;;-143.21;64.72;70795.38;5110608;28;20203;-78
2023/08/04 04:39:11;;;;;;;21.48;15.65;;;;;;;-143.21;64.64;70787.44;5110026;27;20215;-79
2023/08/04 04:41:38;;;;;;;22.60;16.33;;;;;;;-143.21;64.49;70783.47;5111458;27;20196;-80
2023/08/04 04:44:05;;;;;;;23.38;15.60;;;;;;;-143.21;64.71;70785.44;5111359;27;20199;-79
2023/08/04 04:46:32;;;;;;;23.70;15.52;;;;;;;-143.21;64.59;70785.44;5111057;27;20224;-79
2023/08/04 04:49:04;;;;;;;24.25;15.85;;;;;;;-143.21;64.72;70779.50;5110564;27;20675;-79
2023/08/04 04:51:30;;;;;;;20.00;15.32;;;;;;;-143.21;64.49;70781.50;5110943;27;20227;-78
2023/08/04 04:53:57;;;;;;;21.10;16.27;;;;;;;-143.21;64.49;70779.50;5110227;27;20204;-78
2023/08/04 04:56:24;;;;;;;21.17;15.63;;;;;;;-143.21;64.55;70783.47;5110905;27;20200;-78
2023/08/04 04:58:51;;;;;;;20.95;15.35;;;;;;;-143.21;64.84;70777.53;5111116;27;20196;-78
2023/08/04 05:01:18;;;;;;;21.08;15.60;;;;;;;-143.21;64.51;70779.50;5114876;27;20231;-78
2023/08/04 05:03:45;;;;;;;21.15;15.23;;;;;;;-143.21;64.23;70775.53;5110138;27;20200;-78
2023/08/04 05:06:13;;;;;;;20.33;14.90;;;;;;;-143.21;64.07;70775.53;5105746;27;20741;-78
2023/08/04 05:08:40;;;;;;;18.02;14.98;;;;;;;-143.21;64.08;70777.53;5110175;27;20199;-79
2023/08/04 05:11:07;;;;;;;22.60;15.30;;;;;;;-143.21;63.80;70775.53;5110203;27;20206;-80
2023/08/04 05:13:34;;;;;;;21.35;16.35;;;;;;;-143.21;63.97;70765.63;5109789;27;20264;-79
2023/08/04 05:16:00;;;;;;;22.67;16.83;;;;;;;-143.21;63.96;70765.63;5109753;27;20262;-79
2023/08/04 05:18:28;;;;;;;28.67;17.35;;;;;;;-143.21;63.92;70765.63;5121307;27;20195;-79
2023/08/04 05:20:56;;;;;;;23.23;15.68;;;;;;;-143.21;63.83;70763.66;5112245;27;20626;-79
2023/08/04 05:23:24;;;;;;;19.73;14.90;;;;;;;-143.21;63.44;70757.69;5117100;27;20210;-79
2023/08/04 05:25:52;;;;;;;22.92;15.85;;;;;;;-143.21;63.12;70753.72;5121673;27;20237;-79
2023/08/04 05:28:20;;;;;;;22.60;15.82;;;;;;;-143.21;62.94;70739.84;5125858;27;20198;-78
2023/08/04 05:30:47;;;;;;;20.60;14.85;;;;;;;-143.21;61.83;70708.16;5126858;27;20203;-79
2023/08/04 05:33:14;;;;;;;27.80;16.38;;;;;;;-143.21;60.85;70688.31;5124299;27;20202;-79
2023/08/04 05:35:45;;;;;;;25.02;15.93;;;;;;;-143.21;60.88;70698.22;5116455;27;20200;-79
2023/08/04 05:38:12;;;;;;;22.23;15.23;;;;;;;-143.21;60.85;70702.19;5108590;27;20200;-78
2023/08/04 05:40:43;;;;;;;25.45;15.25;;;;;;;-143.21;61.19;70708.16;5109397;27;20207;-79
2023/08/04 05:43:10;;;;;;;21.52;15.70;;;;;;;-143.21;61.35;70706.16;5109054;27;20207;-79
2023/08/04 05:45:37;;;;;;;26.10;15.35;;;;;;;-143.21;61.45;70706.16;5118370;27;20243;-79
2023/08/04 05:48:05;;;;;;;24.83;15.80;;;;;;;-143.21;61.67;70706.16;5115667;27;20204;-79
2023/08/04 05:50:32;;;;;;;19.15;14.77;;;;;;;-143.21;61.36;70702.19;5109046;27;20196;-79
2023/08/04 05:52:59;;;;;;;21.33;15.40;;;;;;;-143.21;61.18;70684.34;5107167;27;20228;-78
2023/08/04 05:55:26;;;;;;;22.67;15.88;;;;;;;-143.21;60.67;70662.56;5106808;27;20199;-78
2023/08/04 05:57:55;;;;;;;24.02;16.30;;;;;;;-143.21;60.42;70656.59;5105233;28;20210;-78
2023/08/04 06:00:22;;;;;;;20.08;15.18;;;;;;;-143.21;60.55;70652.66;5106942;28;20680;-78
2023/08/04 06:02:49;;;;;;;25.08;15.68;;;;;;;-143.21;60.44;70656.59;5113125;27;20209;-78
2023/08/04 06:05:16;;;;;;;20.27;15.35;;;;;;;-143.21;60.05;70654.63;5113006;27;20561;-78
2023/08/04 06:07:43;;;;;;;25.45;15.80;;;;;;;-143.21;59.75;70656.59;5106956;28;20207;-78
2023/08/04 06:10:11;;;;;;;23.90;15.52;;;;;;;-143.21;59.62;70654.63;5107327;28;20303;-78
2023/08/04 06:12:38;;;;;;;23.35;15.80;;;;;;;-143.21;59.79;70656.59;5105434;27;20242;-78
2023/08/04 06:15:07;;;;;;;27.38;15.52;;;;;;;-143.21;59.53;70648.69;5112204;28;20230;-78
2023/08/04 06:17:34;;;;;;;26.13;15.82;;;;;;;-143.21;59.45;70650.66;5123300;27;20838;-79
2023/08/04 06:20:00;;;;;;;23.85;16.45;;;;;;;-143.21;59.41;70634.81;5118152;27;20294;-79
2023/08/04 06:22:27;;;;;;;26.63;16.58;;;;;;;-143.21;59.08;70632.81;5108015;28;20207;-78
2023/08/04 06:24:54;;;;;;;23.50;16.20;;;;;;;-143.21;58.91;70611.00;5106686;28;20543;-79
2023/08/04 06:27:21;;;;;;;20.88;16.02;;;;;;;-143.21;58.51;70614.97;5109070;28;20227;-79
2023/08/04 06:29:48;;;;;;;23.55;16.55;;;;;;;-143.21;57.91;70607.06;5114019;27;20203;-79
2023/08/04 06:32:16;;;;;;;27.67;16.67;;;;;;;-143.21;58.21;70628.84;5109353;28;20698;-78
2023/08/04 06:34:43;;;;;;;23.10;16.13;;;;;;;-143.21;58.89;70646.69;5121177;28;20200;-80
2023/08/04 06:37:09;;;;;;;25.27;16.80;;;;;;;-143.21;59.02;70654.63;5107382;28;20601;-80
2023/08/04 06:39:36;;;;;;;19.17;16.55;;;;;;;-143.21;58.97;70630.84;5107208;28;20203;-80
2023/08/04 06:42:04;;;;;;;20.15;14.82;;;;;;;-143.21;58.12;70587.22;5106707;28;20269;-79
2023/08/04 06:44:30;;;;;;;25.48;16.15;;;;;;;-143.21;57.37;70571.38;5124283;27;20295;-80
2023/08/04 06:46:57;;;;;;;28.48;16.17;;;;;;;-143.21;57.25;70551.56;5094021;27;20765;-80
2023/08/04 06:49:25;;;;;;;22.88;15.77;;;;;;;-143.21;56.77;70551.56;5110343;28;20652;-80
2023/08/04 06:51:52;;;;;;;26.70;15.50;;;;;;;-143.21;56.63;70543.63;5110320;27;20831;-80
2023/08/04 06:54:19;;;;;;;20.98;15.02;;;;;;;-143.21;56.65;70539.66;5114860;27;20187;-80
2023/08/04 06:56:46;;;;;;;20.90;15.80;;;;;;;-143.21;56.47;70533.72;5119975;27;20204;-80
2023/08/04 06:59:13;;;;;;;21.42;15.50;;;;;;;-143.21;56.45;70527.75;5123685;27;20188;-79
2023/08/04 07:01:40;;;;;;;23.88;15.40;;;;;;;-143.21;56.21;70502.00;5110482;27;20196;-79
2023/08/04 07:04:06;;;;;;;24.20;16.10;;;;;;;-143.21;55.55;70478.22;5109735;27;20204;-78
2023/08/04 07:06:35;;;;;;;23.52;15.48;;;;;;;-143.21;55.04;70462.34;5110205;27;20223;-79
2023/08/04 07:09:02;;;;;;;31.63;16.73;;;;;;;-143.21;54.62;70460.38;5109143;28;20192;-81
2023/08/04 07:11:29;;;;;;;20.60;15.63;;;;;;;-143.21;54.93;70464.34;5110602;27;20274;-80
2023/08/04 07:13:56;;;;;;;22.92;15.48;;;;;;;-143.21;54.53;70462.34;5125170;27;20211;-81
2023/08/04 07:16:23;;;;;;;23.85;16.60;;;;;;;-143.21;54.51;70462.34;5110123;27;20204;-80
2023/08/04 07:18:50;;;;;;;22.05;15.15;;;;;;;-143.21;54.50;70456.41;5110550;27;20567;-79
2023/08/04 07:21:17;;;;;;;22.35;15.20;;;;;;;-143.21;54.67;70444.53;5109700;27;20215;-78
2023/08/04 07:23:45;;;;;;;20.95;15.55;;;;;;;-143.21;54.26;70432.63;5124758;27;20219;-80
2023/08/04 07:26:12;;;;;;;21.35;14.88;;;;;;;-143.21;53.51;70400.91;5126791;27;20227;-77
2023/08/04 07:28:39;;;;;;;20.30;15.50;;;;;;;-143.21;52.55;70387.03;5123320;27;20210;-78
2023/08/04 07:31:07;;;;;;;17.83;14.10;;;;;;;-143.21;51.64;70369.19;5110348;27;20575;-77
2023/08/04 07:33:33;;;;;;;20.67;14.63;;;;;;;-143.21;51.66;70365.25;5109604;27;20200;-76
2023/08/04 07:36:01;;;;;;;17.00;12.73;;;;;;;-143.21;50.16;70371.19;5109722;27;20210;-77
2023/08/04 07:38:29;;;;;;;17.92;12.13;;;;;;;-143.21;50.23;70369.19;5109473;27;20199;-77
2023/08/04 07:40:58;;;;;;;17.15;13.18;;;;;;;-143.21;50.84;70359.28;5110470;27;20687;-77
2023/08/04 07:43:25;;;;;;;18.73;13.48;;;;;;;-143.21;50.01;70345.41;5109372;27;20585;-79
2023/08/04 07:45:53;;;;;;;14.95;10.75;;;;;;;-143.21;46.80;70371.19;5109507;27;20196;-77
2023/08/04 07:48:20;;;;;;;18.05;13.30;;;;;;;-143.21;50.20;70365.25;5108962;28;20281;-76
2023/08/04 07:50:48;;;;;;;16.77;12.75;;;;;;;-143.21;49.43;70369.19;5119714;27;20195;-76
2023/08/04 07:53:15;;;;;;;22.70;13.57;;;;;;;-143.21;50.64;70351.38;5118951;27;20204;-76
2023/08/04 07:55:41;;;;;;;17.45;13.68;;;;;;;-143.21;50.04;70331.53;5108628;27;20204;-75
2023/08/04 07:58:10;;;;;;;21.27;13.35;;;;;;;-143.21;49.38;70301.81;5108225;27;20577;-76
2023/08/04 08:00:37;;;;;;;17.05;13.70;;;;;;;-143.21;48.71;70274.06;5109849;27;20200;-76
2023/08/04 08:03:04;;;;;;;17.00;13.27;;;;;;;-143.21;47.97;70262.19;5118044;27;20203;-75
2023/08/04 08:05:31;;;;;;;13.73;11.68;;;;;;;-143.21;47.05;70232.44;5116648;27;20203;-77
2023/08/04 08:07:57;;;;;;;15.95;12.63;;;;;;;-143.21;46.67;70204.69;5114055;27;20323;-75
2023/08/04 08:10:24;;;;;;;18.00;11.40;;;;;;;-143.21;45.59;70200.72;5108791;27;20196;-75
2023/08/04 08:12:51;;;;;;;16.40;11.20;;;;;;;-143.21;45.16;70186.84;5114953;27;20207;-76
2023/08/04 08:15:20;;;;;;;13.60;10.75;;;;;;;-143.21;44.65;70163.06;5116452;27;20200;-75
2023/08/04 08:17:46;;;;;;;16.00;11.05;;;;;;;-143.21;44.46;70155.16;5118548;27;20231;-75
2023/08/04 08:20:13;;;;;;;12.77;11.45;;;;;;;-143.21;43.66;70143.25;5113915;27;20574;-76
2023/08/04 08:22:40;;;;;;;11.20;9.82;;;;;;;-143.21;44.62;70135.31;5119641;27;20211;-76
2023/08/04 08:25:10;;;;;;;15.20;10.50;;;;;;;-143.21;43.96;70117.50;5107982;27;20211;-75
2023/08/04 08:27:37;;;;;;;12.80;10.43;;;;;;;-143.21;42.85;70107.59;5112739;27;20223;-76
2023/08/04 08:30:04;;;;;;;12.35;11.05;;;;;;;-143.21;43.09;70103.63;5107972;27;20658;-77
2023/08/04 08:32:32;;;;;;;12.52;11.02;;;;;;;-143.21;43.60;70081.81;5113805;27;20248;-77
2023/08/04 08:34:59;;;;;;;11.40;9.75;;;;;;;-143.21;42.69;70062.00;5120291;27;20571;-76
2023/08/04 08:37:26;;;;;;;13.00;10.60;;;;;;;-143.21;42.28;70054.06;5111536;27;20204;-75
2023/08/04 08:39:52;;;;;;;13.10;10.40;;;;;;;-143.21;42.25;70036.25;5113892;27;20195;-77
2023/08/04 08:42:19;;;;;;;11.60;10.02;;;;;;;-143.21;41.77;70026.31;5110386;27;20264;-76
2023/08/04 08:44:46;;;;;;;11.27;10.18;;;;;;;-143.21;41.99;70006.50;5110398;27;20200;-76
2023/08/04 08:47:15;;;;;;;11.35;10.10;;;;;;;-143.21;41.12;69996.59;5114698;27;20618;-78
2023/08/04 08:49:47;;;;;;;12.82;9.93;;;;;;;-143.21;41.31;69988.66;5109318;27;20200;-79
2023/08/04 08:52:15;;;;;;;12.55;11.23;;;;;;;-143.21;41.32;69982.72;5125680;27;20255;-76
2023/08/04 08:54:42;;;;;;;14.75;9.90;;;;;;;-143.21;40.96;69966.88;5123209;27;20206;-76
2023/08/04 08:57:09;;;;;;;12.15;10.20;;;;;;;-143.21;40.10;69958.94;5108564;27;20212;-78
2023/08/04 08:59:39;;;;;;;11.27;10.02;;;;;;;-143.21;40.37;69953.00;5109509;27;20208;-78
2023/08/04 09:02:07;;;;;;;16.70;10.25;;;;;;;-143.21;40.33;69935.16;5108375;27;20215;-76
2023/08/04 09:04:36;;;;;;;9.77;8.77;;;;;;;-143.21;40.43;69931.19;5108290;27;20651;-77
2023/08/04 09:07:05;;;;;;;13.93;9.75;;;;;;;-143.21;40.22;69905.44;5121232;27;20221;-80
2023/08/04 09:09:33;;;;;;;12.77;10.05;;;;;;;-143.21;40.15;69889.59;5094797;27;21683;-80
2023/08/04 09:12:00;;;;;;;16.13;11.50;;;;;;;-143.21;39.93;69857.88;5108199;27;20575;-79
2023/08/04 09:14:27;;;;;;;13.70;9.95;;;;;;;-143.21;38.84;69838.06;5100372;27;20208;-80
2023/08/04 09:16:54;;;;;;;11.75;10.02;;;;;;;-143.21;39.21;69818.25;5106482;27;20575;-77
2023/08/04 09:19:33;;;;;;;18.00;9.43;;;;;;;-143.21;39.26;69802.38;5107322;27;20455;-78
2023/08/04 09:22:00;;;;;;;14.30;9.88;;;;;;;-143.21;38.98;69778.59;5107323;27;20265;-79
2023/08/04 09:24:28;;;;;;;14.20;9.73;;;;;;;-143.21;38.78;69756.81;5107720;27;20565;-79
2023/08/04 09:26:55;;;;;;;13.88;9.52;;;;;;;-143.21;38.73;69740.97;5107081;27;20220;-79
2023/08/04 09:29:23;;;;;;;12.95;9.38;;;;;;;-143.21;38.97;69723.13;5107374;27;20208;-79
2023/08/04 09:31:50;;;;;;;13.02;10.13;;;;;;;-143.21;38.29;69701.31;5106840;27;20294;-80
2023/08/04 09:34:17;;;;;;;12.70;10.02;;;;;;;-143.21;37.89;69681.50;5107178;28;20214;-79
2023/08/04 09:36:46;;;;;;;10.48;9.43;;;;;;;-143.21;38.07;69669.63;5106360;27;20206;-79
2023/08/04 09:39:13;;;;;;;11.65;10.20;;;;;;;-143.21;37.96;69665.66;5110141;27;20199;-79
2023/08/04 09:41:43;;;;;;;10.68;9.57;;;;;;;-143.21;37.57;69663.69;5124997;27;20642;-78
2023/08/04 09:44:10;;;;;;;12.18;9.57;;;;;;;-143.21;37.24;69655.75;5125803;27;20529;-78
2023/08/04 09:46:40;;;;;;;10.40;9.30;;;;;;;-143.21;36.92;69639.91;5110434;27;20219;-79
2023/08/04 09:49:08;;;;;;;13.30;9.25;;;;;;;-143.21;37.27;69639.91;5107265;27;20200;-78
2023/08/04 09:51:41;;;;;;;11.27;10.13;;;;;;;-143.21;37.47;69616.13;5109253;27;20352;-80
2023/08/04 09:54:08;;;;;;;12.23;9.82;;;;;;;-143.21;37.00;69598.28;5123723;27;20199;-79
2023/08/04 09:56:35;;;;;;;12.32;9.60;;;;;;;-143.21;36.63;69580.44;5106993;27;20222;-78
2023/08/04 09:59:04;;;;;;;11.27;9.48;;;;;;;-143.21;36.42;69558.66;5109482;27;20230;-78
2023/08/04 10:01:31;;;;;;;11.43;10.23;;;;;;;-143.21;36.15;69552.72;5114757;27;20199;-78
2023/08/04 10:03:58;;;;;;;13.68;10.73;;;;;;;-143.21;35.89;69532.88;5123276;27;20211;-78
2023/08/04 10:06:26;;;;;;;11.60;9.77;;;;;;;-143.21;35.56;69548.75;5107559;27;20192;-79
2023/08/04 10:08:54;;;;;;;10.65;9.55;;;;;;;-143.21;35.13;69554.69;5123572;27;20199;-80
2023/08/04 10:11:22;;;;;;;11.73;9.60;;;;;;;-143.21;35.42;69572.53;5109730;27;20192;-81
2023/08/04 10:13:52;;;;;;;12.60;10.27;;;;;;;-143.21;35.69;69556.66;5105241;27;20200;-81
2023/08/04 10:16:24;;;;;;;12.63;9.65;;;;;;;-143.21;35.38;69538.84;5121580;27;20196;-80
2023/08/04 10:18:54;;;;;;;16.25;10.02;;;;;;;-143.21;34.60;69503.16;5108926;28;20197;-79
2023/08/04 10:21:24;;;;;;;10.40;9.30;;;;;;;-143.21;34.14;69485.34;5113162;27;20192;-80
2023/08/04 10:23:53;;;;;;;12.32;9.80;;;;;;;-143.21;33.95;69481.38;5114538;27;20565;-80
2023/08/04 10:26:20;;;;;;;10.68;9.60;;;;;;;-143.21;33.81;69485.34;5114552;27;20223;-79
2023/08/04 10:29:07;;;;;;;12.20;8.88;;;;;;;-143.21;33.80;69467.50;5112875;27;20246;-79
2023/08/04 10:31:51;;;;;;;10.50;9.32;;;;;;;-143.21;33.59;69447.69;5130862;27;20248;-78
2023/08/04 10:34:20;;;;;;;11.93;9.45;;;;;;;-143.21;32.87;69412.03;5130914;27;20195;-79
2023/08/04 10:37:04;;;;;;;10.73;8.93;;;;;;;-143.21;32.56;69386.25;5119574;27;20207;-78
2023/08/04 10:39:33;;;;;;;12.88;9.43;;;;;;;-143.21;32.50;69370.41;5130478;27;20199;-77
2023/08/04 10:42:01;;;;;;;12.38;8.93;;;;;;;-143.21;32.20;69350.59;5103173;27;20906;-78
2023/08/04 10:44:31;;;;;;;9.65;8.55;;;;;;;-143.21;32.14;69334.75;5105768;27;20678;-79
2023/08/04 10:47:05;;;;;;;14.32;9.27;;;;;;;-143.21;32.19;69307.00;5113448;27;22114;-79
2023/08/04 10:49:32;;;;;;;19.70;8.85;;;;;;;-143.21;31.79;69283.22;5097290;27;20582;-79
2023/08/04 10:52:00;;;;;;;12.40;8.40;;;;;;;-143.21;31.21;69301.06;5101050;27;20327;-78
2023/08/04 10:54:26;;;;;;;11.95;8.85;;;;;;;-143.21;31.96;69318.88;5130764;27;20351;-79
2023/08/04 10:56:55;;;;;;;9.73;8.75;;;;;;;-143.21;31.25;69299.06;5125902;27;20979;-79
2023/08/04 10:59:22;;;;;;;10.15;8.38;;;;;;;-143.21;31.15;69297.09;5113943;27;20311;-79
2023/08/04 11:01:49;;;;;;;10.40;8.43;;;;;;;-143.21;31.67;69328.78;5130777;27;20630;-80
2023/08/04 11:04:18;;;;;;;9.85;8.50;;;;;;;-143.21;31.93;69358.53;5129769;27;20199;-80